RJFM

Miyazaki Airport

Miyazaki, Japan
TAF RJFM 160509Z 1606/1712 33005KT 8000 -SHRA FEW008 SCT015 BKN025 TEMPO 1609/1612 3000 SHRA BR FEW005 BKN008 BKN015 TEMPO 1612/1618 4000 -SHRA BR FEW005 BKN008 BKN015 BECMG 1700/1703 04008KT BECMG 1709/1712 28007KT
Issued Valid From Valid To
Nov-16 @ 05:09 UTC
(5 hours ago)
Nov-16 @ 06:00 UTC
(4 hours ago)
Nov-17 @ 12:00 UTC
(-1 days ago)
Nov-16 @ 06:00 to Nov-17 @ 00:00
TAF RJFM 160509Z 1606/1712 33005KT 8000 -SHRA FEW008 SCT015 BKN025
Wind Visibility Clouds Conditions
330° at 5 knots 7,998 meters
  • Few at 800' AGL
  • Scattered at 1,500' AGL
  • Broken at 2,500' AGL
  • Light Rain
Temporary Nov-16 @ 09:00 to Nov-16 @ 12:00
TEMPO 1609/1612 3000 SHRA BR FEW005 BKN008 BKN015
Visibility Clouds Conditions
2,993 meters
  • Few at 500' AGL
  • Broken at 800' AGL
  • Broken at 1,500' AGL
  • Rain
  • Mist
Temporary Nov-16 @ 12:00 to Nov-16 @ 18:00
TEMPO 1612/1618 4000 -SHRA BR FEW005 BKN008 BKN015
Visibility Clouds Conditions
4,007 meters
  • Few at 500' AGL
  • Broken at 800' AGL
  • Broken at 1,500' AGL
  • Light Rain
  • Mist
Becoming Nov-17 @ 00:00 to Nov-17 @ 09:00
BECMG 1700/1703 04008KT
Wind Visibility Clouds Conditions
40° at 8 knots 7,998 meters
  • Few at 800' AGL
  • Scattered at 1,500' AGL
  • Broken at 2,500' AGL
  • Light Rain
Becoming Nov-17 @ 09:00 to Nov-17 @ 12:00
BECMG 1709/1712 28007KT
Wind Visibility Clouds Conditions
280° at 7 knots 7,998 meters
  • Few at 800' AGL
  • Scattered at 1,500' AGL
  • Broken at 2,500' AGL
  • Light Rain
TAF RJFM 160509Z 1606/1712 33005KT 8000 -SHRA FEW008 SCT015 BKN025 TEMPO 1609/1612 3000 SHRA BR FEW005 BKN008 BKN015 TEMPO 1612/1618 4000 -SHRA BR FEW005 BKN008 BKN015 BECMG 1700/1703 04008KT BECMG 1709/1712 28007KT
Issued Nov-16 @ 05:09 UTC
(5 hours ago)
Valid From Nov-16 @ 06:00 UTC
(4 hours ago)
Valid To Nov-17 @ 12:00 UTC
(-1 days ago)
Nov-16 @ 06:00 - Nov-17 @ 00:00
Wind Visibility
330° at 5 knots 7,998 meters
Clouds
  • Few at 800' AGL
  • Scattered at 1,500' AGL
  • Broken at 2,500' AGL
Conditions
  • Light Rain
Temporary Nov-16 @ 09:00 - Nov-16 @ 12:00
Clouds
  • Few at 500' AGL
  • Broken at 800' AGL
  • Broken at 1,500' AGL
Conditions
  • Rain
  • Mist
Temporary Nov-16 @ 12:00 - Nov-16 @ 18:00
Clouds
  • Few at 500' AGL
  • Broken at 800' AGL
  • Broken at 1,500' AGL
Conditions
  • Light Rain
  • Mist
Becoming Nov-17 @ 00:00 - Nov-17 @ 09:00
Wind Visibility
40° at 8 knots 7,998 meters
Clouds
  • Few at 800' AGL
  • Scattered at 1,500' AGL
  • Broken at 2,500' AGL
Conditions
  • Light Rain
Becoming Nov-17 @ 09:00 - Nov-17 @ 12:00
Wind Visibility
280° at 7 knots 7,998 meters
Clouds
  • Few at 800' AGL
  • Scattered at 1,500' AGL
  • Broken at 2,500' AGL
Conditions
  • Light Rain